Station: EHBK - 20/07/2019 08:55Z (il y a 25 minutes)
EHBK 200855Z AUTO 20011KT 150V240 9999 NSC 26/14 Q1010 NOSIG
Vent du 200º - 11 kt (vent de direction variable de 150º à 240º)
Visibilité > 10 km
Pas de nuages significatifs
Température: +26ºC - Point de rosée: +14ºC - QNH: 1010 hPa
Pas de changement significatif prévu dans les 2 heures qui suivent l'observation